Terminal Aerodrome Forecast
Issued by NWS

Home | Current Version | Previous Version | Text Only | Print | Product List | Glossary On
Versions: 1 2 3 4 5 6 7 8 9 10 11 12 13 14 15 16
000
FTUS45 KABQ 160100 AAA
TAFTCC
TAF AMD
KTCC 160139Z 1602/1624 05014G22KT P6SM SCT025 BKN035
      TEMPO 1602/1606 BKN025
     FM160600 04006KT P6SM OVC025
     FM161600 22006KT P6SM BKN025=

USA.gov is the U.S. government's official web portal to all federal, state and local government web resources and services.